sensor_id;sensor_type;location;lat;lon;timestamp;temperature;humidity
75190;HTU21D;69198;44.694;37.790;2023-06-04T00:00:15;21.76;78.18
75190;HTU21D;69198;44.694;37.790;2023-06-04T00:01:16;21.74;78.35
75190;HTU21D;69198;44.694;37.790;2023-06-04T00:02:17;21.75;78.27
75190;HTU21D;69198;44.694;37.790;2023-06-04T00:03:18;21.73;78.30
75190;HTU21D;69198;44.694;37.790;2023-06-04T00:04:19;21.72;78.51
75190;HTU21D;69198;44.694;37.790;2023-06-04T00:05:20;21.73;78.59
75190;HTU21D;69198;44.694;37.790;2023-06-04T00:06:23;21.74;78.48
75190;HTU21D;69198;44.694;37.790;2023-06-04T00:07:24;21.74;78.59
75190;HTU21D;69198;44.694;37.790;2023-06-04T00:08:25;21.70;78.80
75190;HTU21D;69198;44.694;37.790;2023-06-04T00:09:26;21.70;78.78
75190;HTU21D;69198;44.694;37.790;2023-06-04T00:10:27;21.70;78.72
75190;HTU21D;69198;44.694;37.790;2023-06-04T00:11:28;21.69;78.74
75190;HTU21D;69198;44.694;37.790;2023-06-04T00:12:29;21.73;78.39
75190;HTU21D;69198;44.694;37.790;2023-06-04T00:13:30;21.75;78.30
75190;HTU21D;69198;44.694;37.790;2023-06-04T00:14:31;21.74;78.43
75190;HTU21D;69198;44.694;37.790;2023-06-04T00:15:32;21.72;78.50
75190;HTU21D;69198;44.694;37.790;2023-06-04T00:16:33;21.72;78.55
75190;HTU21D;69198;44.694;37.790;2023-06-04T00:17:37;21.72;78.74
75190;HTU21D;69198;44.694;37.790;2023-06-04T00:18:38;21.74;78.64
75190;HTU21D;69198;44.694;37.790;2023-06-04T00:19:40;21.72;78.86
75190;HTU21D;69198;44.694;37.790;2023-06-04T00:20:41;21.73;78.87
75190;HTU21D;69198;44.694;37.790;2023-06-04T00:21:42;21.77;78.48
75190;HTU21D;69198;44.694;37.790;2023-06-04T00:22:43;21.78;78.27
75190;HTU21D;69198;44.694;37.790;2023-06-04T00:23:44;21.79;78.21
75190;HTU21D;69198;44.694;37.790;2023-06-04T00:24:45;21.78;78.20
75190;HTU21D;69198;44.694;37.790;2023-06-04T00:25:46;21.78;78.43
75190;HTU21D;69198;44.694;37.790;2023-06-04T00:26:47;21.79;78.43
75190;HTU21D;69198;44.694;37.790;2023-06-04T00:27:48;21.78;78.29
75190;HTU21D;69198;44.694;37.790;2023-06-04T00:28:49;21.78;78.34
75190;HTU21D;69198;44.694;37.790;2023-06-04T00:29:50;21.76;78.30
75190;HTU21D;69198;44.694;37.790;2023-06-04T00:30:51;21.77;78.30
75190;HTU21D;69198;44.694;37.790;2023-06-04T00:31:52;21.77;78.41
75190;HTU21D;69198;44.694;37.790;2023-06-04T00:32:53;21.76;78.33
75190;HTU21D;69198;44.694;37.790;2023-06-04T00:33:55;21.77;78.44
75190;HTU21D;69198;44.694;37.790;2023-06-04T00:34:56;21.78;78.30
75190;HTU21D;69198;44.694;37.790;2023-06-04T00:36:01;21.76;78.33
75190;HTU21D;69198;44.694;37.790;2023-06-04T00:37:02;21.76;78.41
75190;HTU21D;69198;44.694;37.790;2023-06-04T00:38:03;21.75;78.47
75190;HTU21D;69198;44.694;37.790;2023-06-04T00:39:04;21.74;78.58
75190;HTU21D;69198;44.694;37.790;2023-06-04T00:40:06;21.72;78.59
75190;HTU21D;69198;44.694;37.790;2023-06-04T00:41:07;21.73;78.59
75190;HTU21D;69198;44.694;37.790;2023-06-04T00:42:09;21.72;78.85
75190;HTU21D;69198;44.694;37.790;2023-06-04T00:43:09;21.72;78.83
75190;HTU21D;69198;44.694;37.790;2023-06-04T00:44:11;21.72;78.82
75190;HTU21D;69198;44.694;37.790;2023-06-04T00:45:12;21.70;78.63
75190;HTU21D;69198;44.694;37.790;2023-06-04T00:46:16;21.70;78.62
75190;HTU21D;69198;44.694;37.790;2023-06-04T00:47:20;21.69;78.48
75190;HTU21D;69198;44.694;37.790;2023-06-04T00:48:21;21.69;78.59
75190;HTU21D;69198;44.694;37.790;2023-06-04T00:49:22;21.67;78.47
75190;HTU21D;69198;44.694;37.790;2023-06-04T00:50:24;21.65;78.34
75190;HTU21D;69198;44.694;37.790;2023-06-04T00:51:25;21.54;78.80
75190;HTU21D;69198;44.694;37.790;2023-06-04T00:52:27;21.42;79.30
75190;HTU21D;69198;44.694;37.790;2023-06-04T00:53:28;21.42;79.27
75190;HTU21D;69198;44.694;37.790;2023-06-04T00:54:29;21.46;78.98
75190;HTU21D;69198;44.694;37.790;2023-06-04T00:55:30;21.51;78.27
75190;HTU21D;69198;44.694;37.790;2023-06-04T00:56:32;21.54;78.29
75190;HTU21D;69198;44.694;37.790;2023-06-04T00:57:33;21.54;78.21
75190;HTU21D;69198;44.694;37.790;2023-06-04T00:58:38;21.55;78.37
75190;HTU21D;69198;44.694;37.790;2023-06-04T00:59:40;21.53;78.42
75190;HTU21D;69198;44.694;37.790;2023-06-04T01:00:43;21.53;78.25
75190;HTU21D;69198;44.694;37.790;2023-06-04T01:02:31;21.53;78.18
75190;HTU21D;69198;44.694;37.790;2023-06-04T01:03:18;21.51;78.22
75190;HTU21D;69198;44.694;37.790;2023-06-04T01:06:00;21.50;78.15
75190;HTU21D;69198;44.694;37.790;2023-06-04T01:07:04;21.46;78.24
75190;HTU21D;69198;44.694;37.790;2023-06-04T01:08:05;21.47;78.11
75190;HTU21D;69198;44.694;37.790;2023-06-04T01:09:10;21.47;77.97
75190;HTU21D;69198;44.694;37.790;2023-06-04T01:10:11;21.46;78.08
75190;HTU21D;69198;44.694;37.790;2023-06-04T01:11:15;21.44;78.18
75190;HTU21D;69198;44.694;37.790;2023-06-04T01:12:16;21.44;77.95
75190;HTU21D;69198;44.694;37.790;2023-06-04T01:13:17;21.40;78.05
75190;HTU21D;69198;44.694;37.790;2023-06-04T01:14:18;21.43;78.06
75190;HTU21D;69198;44.694;37.790;2023-06-04T01:15:20;21.43;78.01
75190;HTU21D;69198;44.694;37.790;2023-06-04T01:16:26;21.42;77.72
75190;HTU21D;69198;44.694;37.790;2023-06-04T01:17:39;21.44;77.65
75190;HTU21D;69198;44.694;37.790;2023-06-04T01:18:41;21.42;77.79
75190;HTU21D;69198;44.694;37.790;2023-06-04T01:21:09;21.37;77.84
75190;HTU21D;69198;44.694;37.790;2023-06-04T01:22:24;21.37;77.75
75190;HTU21D;69198;44.694;37.790;2023-06-04T01:24:35;21.34;77.86
75190;HTU21D;69198;44.694;37.790;2023-06-04T01:25:40;21.34;77.73
75190;HTU21D;69198;44.694;37.790;2023-06-04T01:26:50;21.33;77.90
75190;HTU21D;69198;44.694;37.790;2023-06-04T01:27:54;21.31;77.96
75190;HTU21D;69198;44.694;37.790;2023-06-04T01:28:57;21.30;77.86
75190;HTU21D;69198;44.694;37.790;2023-06-04T01:29:59;21.30;77.80
75190;HTU21D;69198;44.694;37.790;2023-06-04T01:31:01;21.28;77.82
75190;HTU21D;69198;44.694;37.790;2023-06-04T01:32:04;21.28;77.81
75190;HTU21D;69198;44.694;37.790;2023-06-04T01:33:05;21.27;77.89
75190;HTU21D;69198;44.694;37.790;2023-06-04T01:34:07;21.25;77.99
75190;HTU21D;69198;44.694;37.790;2023-06-04T01:35:11;21.28;77.89
75190;HTU21D;69198;44.694;37.790;2023-06-04T01:36:12;21.28;77.76
75190;HTU21D;69198;44.694;37.790;2023-06-04T01:37:13;21.27;77.82
75190;HTU21D;69198;44.694;37.790;2023-06-04T01:38:14;21.28;78.10
75190;HTU21D;69198;44.694;37.790;2023-06-04T01:39:16;21.27;78.29
75190;HTU21D;69198;44.694;37.790;2023-06-04T01:40:18;21.30;78.26
75190;HTU21D;69198;44.694;37.790;2023-06-04T01:41:19;21.32;78.46
75190;HTU21D;69198;44.694;37.790;2023-06-04T01:42:20;21.32;78.02
75190;HTU21D;69198;44.694;37.790;2023-06-04T01:43:21;21.32;77.81
75190;HTU21D;69198;44.694;37.790;2023-06-04T01:44:22;21.34;77.65
75190;HTU21D;69198;44.694;37.790;2023-06-04T01:45:23;21.33;77.62
75190;HTU21D;69198;44.694;37.790;2023-06-04T01:46:24;21.31;77.95
75190;HTU21D;69198;44.694;37.790;2023-06-04T01:47:25;21.27;78.15
75190;HTU21D;69198;44.694;37.790;2023-06-04T01:48:26;21.29;78.30
75190;HTU21D;69198;44.694;37.790;2023-06-04T01:49:27;21.28;78.06
75190;HTU21D;69198;44.694;37.790;2023-06-04T01:50:28;21.29;77.87
75190;HTU21D;69198;44.694;37.790;2023-06-04T01:51:31;21.29;77.92
75190;HTU21D;69198;44.694;37.790;2023-06-04T01:52:33;21.25;78.04
75190;HTU21D;69198;44.694;37.790;2023-06-04T01:53:34;21.25;78.17
75190;HTU21D;69198;44.694;37.790;2023-06-04T01:54:43;21.25;78.04
75190;HTU21D;69198;44.694;37.790;2023-06-04T01:55:44;21.23;78.31
75190;HTU21D;69198;44.694;37.790;2023-06-04T01:56:45;21.21;78.80
75190;HTU21D;69198;44.694;37.790;2023-06-04T01:57:47;21.24;78.57
75190;HTU21D;69198;44.694;37.790;2023-06-04T01:58:48;21.25;78.01
75190;HTU21D;69198;44.694;37.790;2023-06-04T01:59:49;21.24;77.79
75190;HTU21D;69198;44.694;37.790;2023-06-04T02:00:51;21.24;77.89
75190;HTU21D;69198;44.694;37.790;2023-06-04T02:01:53;21.25;78.30
75190;HTU21D;69198;44.694;37.790;2023-06-04T02:02:55;21.23;78.59
75190;HTU21D;69198;44.694;37.790;2023-06-04T02:03:56;21.20;78.75
75190;HTU21D;69198;44.694;37.790;2023-06-04T02:04:57;21.20;78.75
75190;HTU21D;69198;44.694;37.790;2023-06-04T02:05:58;21.20;78.38
75190;HTU21D;69198;44.694;37.790;2023-06-04T02:07:00;21.22;78.12
75190;HTU21D;69198;44.694;37.790;2023-06-04T02:08:01;21.22;78.30
75190;HTU21D;69198;44.694;37.790;2023-06-04T02:09:02;21.23;78.59
75190;HTU21D;69198;44.694;37.790;2023-06-04T02:10:06;21.23;78.34
75190;HTU21D;69198;44.694;37.790;2023-06-04T02:11:07;21.22;78.44
75190;HTU21D;69198;44.694;37.790;2023-06-04T02:12:09;21.22;78.36
75190;HTU21D;69198;44.694;37.790;2023-06-04T02:13:14;21.21;78.18
75190;HTU21D;69198;44.694;37.790;2023-06-04T02:14:15;21.22;77.89
75190;HTU21D;69198;44.694;37.790;2023-06-04T02:15:16;21.23;78.18
75190;HTU21D;69198;44.694;37.790;2023-06-04T02:16:17;21.23;78.48
75190;HTU21D;69198;44.694;37.790;2023-06-04T02:17:18;21.23;78.60
75190;HTU21D;69198;44.694;37.790;2023-06-04T02:18:20;21.22;78.43
75190;HTU21D;69198;44.694;37.790;2023-06-04T02:19:23;21.22;78.27
75190;HTU21D;69198;44.694;37.790;2023-06-04T02:20:26;21.20;78.28
75190;HTU21D;69198;44.694;37.790;2023-06-04T02:21:28;21.19;78.24
75190;HTU21D;69198;44.694;37.790;2023-06-04T02:22:29;21.21;78.41
75190;HTU21D;69198;44.694;37.790;2023-06-04T02:23:30;21.21;78.64
75190;HTU21D;69198;44.694;37.790;2023-06-04T02:24:31;21.20;78.41
75190;HTU21D;69198;44.694;37.790;2023-06-04T02:25:32;21.20;78.29
75190;HTU21D;69198;44.694;37.790;2023-06-04T02:26:33;21.18;78.12
75190;HTU21D;69198;44.694;37.790;2023-06-04T02:27:34;21.19;78.10
75190;HTU21D;69198;44.694;37.790;2023-06-04T02:28:37;21.20;77.87
75190;HTU21D;69198;44.694;37.790;2023-06-04T02:29:39;21.19;78.18
75190;HTU21D;69198;44.694;37.790;2023-06-04T02:30:40;21.20;78.26
75190;HTU21D;69198;44.694;37.790;2023-06-04T02:31:41;21.22;78.37
75190;HTU21D;69198;44.694;37.790;2023-06-04T02:32:43;21.23;77.89
75190;HTU21D;69198;44.694;37.790;2023-06-04T02:33:45;21.24;77.85
75190;HTU21D;69198;44.694;37.790;2023-06-04T02:34:46;21.25;77.86
75190;HTU21D;69198;44.694;37.790;2023-06-04T02:35:47;21.28;78.00
75190;HTU21D;69198;44.694;37.790;2023-06-04T02:36:48;21.25;78.24
75190;HTU21D;69198;44.694;37.790;2023-06-04T02:37:51;21.30;77.91
75190;HTU21D;69198;44.694;37.790;2023-06-04T02:38:52;21.27;77.95
75190;HTU21D;69198;44.694;37.790;2023-06-04T02:39:53;21.31;77.60
75190;HTU21D;69198;44.694;37.790;2023-06-04T02:40:54;21.30;77.86
75190;HTU21D;69198;44.694;37.790;2023-06-04T02:41:55;21.31;77.73
75190;HTU21D;69198;44.694;37.790;2023-06-04T02:42:56;21.30;77.76
75190;HTU21D;69198;44.694;37.790;2023-06-04T02:43:57;21.31;77.73
75190;HTU21D;69198;44.694;37.790;2023-06-04T02:44:59;21.33;77.57
75190;HTU21D;69198;44.694;37.790;2023-06-04T02:46:00;21.35;77.71
75190;HTU21D;69198;44.694;37.790;2023-06-04T02:47:01;21.35;77.64
75190;HTU21D;69198;44.694;37.790;2023-06-04T02:48:02;21.37;77.55
75190;HTU21D;69198;44.694;37.790;2023-06-04T02:49:03;21.39;77.22
75190;HTU21D;69198;44.694;37.790;2023-06-04T02:50:05;21.37;77.32
75190;HTU21D;69198;44.694;37.790;2023-06-04T02:51:06;21.37;77.31
75190;HTU21D;69198;44.694;37.790;2023-06-04T02:52:10;21.40;77.27
75190;HTU21D;69198;44.694;37.790;2023-06-04T02:53:11;21.44;77.34
75190;HTU21D;69198;44.694;37.790;2023-06-04T02:54:12;21.49;77.18
75190;HTU21D;69198;44.694;37.790;2023-06-04T02:55:13;21.52;77.05
75190;HTU21D;69198;44.694;37.790;2023-06-04T02:56:14;21.52;76.88
75190;HTU21D;69198;44.694;37.790;2023-06-04T02:57:15;21.58;76.64
75190;HTU21D;69198;44.694;37.790;2023-06-04T02:58:16;21.60;76.52
75190;HTU21D;69198;44.694;37.790;2023-06-04T02:59:18;21.61;76.41
75190;HTU21D;69198;44.694;37.790;2023-06-04T03:00:19;21.59;76.70
75190;HTU21D;69198;44.694;37.790;2023-06-04T03:01:23;21.60;76.66
75190;HTU21D;69198;44.694;37.790;2023-06-04T03:02:25;21.65;76.29
75190;HTU21D;69198;44.694;37.790;2023-06-04T03:03:26;21.67;76.03
75190;HTU21D;69198;44.694;37.790;2023-06-04T03:04:27;21.69;76.05
75190;HTU21D;69198;44.694;37.790;2023-06-04T03:05:35;21.69;76.11
75190;HTU21D;69198;44.694;37.790;2023-06-04T03:06:37;21.73;76.42
75190;HTU21D;69198;44.694;37.790;2023-06-04T03:07:46;21.70;76.38
75190;HTU21D;69198;44.694;37.790;2023-06-04T03:08:49;21.66;76.56
75190;HTU21D;69198;44.694;37.790;2023-06-04T03:09:50;21.70;76.59
75190;HTU21D;69198;44.694;37.790;2023-06-04T03:10:51;21.69;76.52
75190;HTU21D;69198;44.694;37.790;2023-06-04T03:11:53;21.68;76.64
75190;HTU21D;69198;44.694;37.790;2023-06-04T03:12:55;21.73;76.50
75190;HTU21D;69198;44.694;37.790;2023-06-04T03:13:56;21.73;76.34
75190;HTU21D;69198;44.694;37.790;2023-06-04T03:14:57;21.76;76.39
75190;HTU21D;69198;44.694;37.790;2023-06-04T03:15:58;21.78;76.46
75190;HTU21D;69198;44.694;37.790;2023-06-04T03:17:02;21.80;76.44
75190;HTU21D;69198;44.694;37.790;2023-06-04T03:18:10;21.82;76.38
75190;HTU21D;69198;44.694;37.790;2023-06-04T03:19:12;21.83;76.19
75190;HTU21D;69198;44.694;37.790;2023-06-04T03:20:13;21.80;76.06
75190;HTU21D;69198;44.694;37.790;2023-06-04T03:21:14;21.81;76.25
75190;HTU21D;69198;44.694;37.790;2023-06-04T03:22:16;21.80;76.37
75190;HTU21D;69198;44.694;37.790;2023-06-04T03:23:17;21.84;76.00
75190;HTU21D;69198;44.694;37.790;2023-06-04T03:24:18;21.83;76.22
75190;HTU21D;69198;44.694;37.790;2023-06-04T03:25:19;21.84;76.38
75190;HTU21D;69198;44.694;37.790;2023-06-04T03:26:21;21.84;76.07
75190;HTU21D;69198;44.694;37.790;2023-06-04T03:27:22;21.82;76.46
75190;HTU21D;69198;44.694;37.790;2023-06-04T03:28:23;21.81;76.23
75190;HTU21D;69198;44.694;37.790;2023-06-04T03:29:24;21.79;75.94
75190;HTU21D;69198;44.694;37.790;2023-06-04T03:30:28;21.76;76.20
75190;HTU21D;69198;44.694;37.790;2023-06-04T03:31:33;21.73;76.56
75190;HTU21D;69198;44.694;37.790;2023-06-04T03:32:35;21.74;76.69
75190;HTU21D;69198;44.694;37.790;2023-06-04T03:33:36;21.73;76.88
75190;HTU21D;69198;44.694;37.790;2023-06-04T03:34:37;21.76;76.70
75190;HTU21D;69198;44.694;37.790;2023-06-04T03:35:40;21.79;76.28
75190;HTU21D;69198;44.694;37.790;2023-06-04T03:36:42;21.79;75.54
75190;HTU21D;69198;44.694;37.790;2023-06-04T03:37:43;21.79;75.40
75190;HTU21D;69198;44.694;37.790;2023-06-04T03:38:47;21.81;75.52
75190;HTU21D;69198;44.694;37.790;2023-06-04T03:39:48;21.82;75.74
75190;HTU21D;69198;44.694;37.790;2023-06-04T03:40:51;21.82;76.03
75190;HTU21D;69198;44.694;37.790;2023-06-04T03:41:54;21.83;76.03
75190;HTU21D;69198;44.694;37.790;2023-06-04T03:42:57;21.83;76.15
75190;HTU21D;69198;44.694;37.790;2023-06-04T03:44:02;21.92;76.18
75190;HTU21D;69198;44.694;37.790;2023-06-04T03:45:06;21.96;76.02
75190;HTU21D;69198;44.694;37.790;2023-06-04T03:46:08;22.06;75.86
75190;HTU21D;69198;44.694;37.790;2023-06-04T03:47:11;22.17;75.47
75190;HTU21D;69198;44.694;37.790;2023-06-04T03:48:13;22.22;75.38
75190;HTU21D;69198;44.694;37.790;2023-06-04T03:49:14;22.28;75.26
75190;HTU21D;69198;44.694;37.790;2023-06-04T03:50:19;22.37;75.21
75190;HTU21D;69198;44.694;37.790;2023-06-04T03:51:20;22.38;75.02
75190;HTU21D;69198;44.694;37.790;2023-06-04T03:52:21;22.34;74.69
75190;HTU21D;69198;44.694;37.790;2023-06-04T03:53:22;22.22;74.73
75190;HTU21D;69198;44.694;37.790;2023-06-04T03:54:24;22.07;75.09
75190;HTU21D;69198;44.694;37.790;2023-06-04T03:55:26;21.96;75.34
75190;HTU21D;69198;44.694;37.790;2023-06-04T03:56:28;21.87;75.71
75190;HTU21D;69198;44.694;37.790;2023-06-04T03:57:30;21.81;76.15
75190;HTU21D;69198;44.694;37.790;2023-06-04T03:58:32;21.78;76.08
75190;HTU21D;69198;44.694;37.790;2023-06-04T03:59:34;21.70;76.10
75190;HTU21D;69198;44.694;37.790;2023-06-04T04:00:36;21.62;76.19
75190;HTU21D;69198;44.694;37.790;2023-06-04T04:01:37;21.58;76.28
75190;HTU21D;69198;44.694;37.790;2023-06-04T04:02:40;21.51;76.53
75190;HTU21D;69198;44.694;37.790;2023-06-04T04:03:43;21.48;77.02
75190;HTU21D;69198;44.694;37.790;2023-06-04T04:04:44;21.42;77.53
75190;HTU21D;69198;44.694;37.790;2023-06-04T04:05:48;21.40;77.40
75190;HTU21D;69198;44.694;37.790;2023-06-04T04:06:49;21.39;77.66
75190;HTU21D;69198;44.694;37.790;2023-06-04T04:07:51;21.35;77.83
75190;HTU21D;69198;44.694;37.790;2023-06-04T04:08:57;21.34;77.88
75190;HTU21D;69198;44.694;37.790;2023-06-04T04:09:59;21.34;78.11
75190;HTU21D;69198;44.694;37.790;2023-06-04T04:11:05;21.39;78.11
75190;HTU21D;69198;44.694;37.790;2023-06-04T04:12:07;21.46;77.83
75190;HTU21D;69198;44.694;37.790;2023-06-04T04:13:09;21.48;77.79
75190;HTU21D;69198;44.694;37.790;2023-06-04T04:14:12;21.51;77.79
75190;HTU21D;69198;44.694;37.790;2023-06-04T04:15:14;21.55;77.79
75190;HTU21D;69198;44.694;37.790;2023-06-04T04:16:16;21.59;77.54
75190;HTU21D;69198;44.694;37.790;2023-06-04T04:17:17;21.63;77.17
75190;HTU21D;69198;44.694;37.790;2023-06-04T04:18:21;21.68;77.08
75190;HTU21D;69198;44.694;37.790;2023-06-04T04:19:23;21.70;76.91
75190;HTU21D;69198;44.694;37.790;2023-06-04T04:20:24;21.69;76.31
75190;HTU21D;69198;44.694;37.790;2023-06-04T04:21:31;21.69;76.37
75190;HTU21D;69198;44.694;37.790;2023-06-04T04:22:32;21.67;76.30
75190;HTU21D;69198;44.694;37.790;2023-06-04T04:23:34;21.70;75.99
75190;HTU21D;69198;44.694;37.790;2023-06-04T04:24:35;21.70;75.86
75190;HTU21D;69198;44.694;37.790;2023-06-04T04:25:38;21.69;75.91
75190;HTU21D;69198;44.694;37.790;2023-06-04T04:26:41;21.70;76.07
75190;HTU21D;69198;44.694;37.790;2023-06-04T04:27:44;21.69;75.99
75190;HTU21D;69198;44.694;37.790;2023-06-04T04:28:46;21.70;75.76
75190;HTU21D;69198;44.694;37.790;2023-06-04T04:29:47;21.75;75.36
75190;HTU21D;69198;44.694;37.790;2023-06-04T04:30:49;21.79;75.25
75190;HTU21D;69198;44.694;37.790;2023-06-04T04:31:51;21.80;75.61
75190;HTU21D;69198;44.694;37.790;2023-06-04T04:32:55;21.81;75.34
75190;HTU21D;69198;44.694;37.790;2023-06-04T04:34:07;21.82;75.41
75190;HTU21D;69198;44.694;37.790;2023-06-04T04:35:13;21.83;75.03
75190;HTU21D;69198;44.694;37.790;2023-06-04T04:36:15;21.83;74.55
75190;HTU21D;69198;44.694;37.790;2023-06-04T04:37:21;21.84;74.26
75190;HTU21D;69198;44.694;37.790;2023-06-04T04:38:24;21.85;74.54
75190;HTU21D;69198;44.694;37.790;2023-06-04T04:39:31;21.88;74.68
75190;HTU21D;69198;44.694;37.790;2023-06-04T04:40:32;21.89;74.68
75190;HTU21D;69198;44.694;37.790;2023-06-04T04:41:34;21.89;74.80
75190;HTU21D;69198;44.694;37.790;2023-06-04T04:42:37;21.85;75.02
75190;HTU21D;69198;44.694;37.790;2023-06-04T04:43:39;21.81;75.15
75190;HTU21D;69198;44.694;37.790;2023-06-04T04:44:58;21.77;74.98
75190;HTU21D;69198;44.694;37.790;2023-06-04T04:46:00;21.68;75.68
75190;HTU21D;69198;44.694;37.790;2023-06-04T04:47:01;21.66;75.77
75190;HTU21D;69198;44.694;37.790;2023-06-04T04:48:03;21.62;75.83
75190;HTU21D;69198;44.694;37.790;2023-06-04T04:49:04;21.61;76.13
75190;HTU21D;69198;44.694;37.790;2023-06-04T04:50:05;21.61;76.15
75190;HTU21D;69198;44.694;37.790;2023-06-04T04:51:06;21.62;76.16
75190;HTU21D;69198;44.694;37.790;2023-06-04T04:52:08;21.60;76.02
75190;HTU21D;69198;44.694;37.790;2023-06-04T04:53:11;21.60;75.86
75190;HTU21D;69198;44.694;37.790;2023-06-04T04:54:13;21.58;75.99
75190;HTU21D;69198;44.694;37.790;2023-06-04T04:55:14;21.57;76.30
75190;HTU21D;69198;44.694;37.790;2023-06-04T04:56:18;21.55;76.18
75190;HTU21D;69198;44.694;37.790;2023-06-04T04:57:23;21.57;76.07
75190;HTU21D;69198;44.694;37.790;2023-06-04T04:58:26;21.58;76.28
75190;HTU21D;69198;44.694;37.790;2023-06-04T04:59:29;21.61;76.26
75190;HTU21D;69198;44.694;37.790;2023-06-04T05:00:32;21.60;76.03
75190;HTU21D;69198;44.694;37.790;2023-06-04T05:01:34;21.59;75.69
75190;HTU21D;69198;44.694;37.790;2023-06-04T05:02:36;21.60;75.97
75190;HTU21D;69198;44.694;37.790;2023-06-04T05:03:37;21.60;75.95
75190;HTU21D;69198;44.694;37.790;2023-06-04T05:04:38;21.55;76.23
75190;HTU21D;69198;44.694;37.790;2023-06-04T05:05:40;21.54;76.03
75190;HTU21D;69198;44.694;37.790;2023-06-04T05:06:41;21.52;75.95
75190;HTU21D;69198;44.694;37.790;2023-06-04T05:07:42;21.52;76.02
75190;HTU21D;69198;44.694;37.790;2023-06-04T05:08:44;21.50;76.00
75190;HTU21D;69198;44.694;37.790;2023-06-04T05:09:46;21.49;76.16
75190;HTU21D;69198;44.694;37.790;2023-06-04T05:10:48;21.44;76.40
75190;HTU21D;69198;44.694;37.790;2023-06-04T05:11:49;21.40;76.38
75190;HTU21D;69198;44.694;37.790;2023-06-04T05:12:54;21.44;76.13
75190;HTU21D;69198;44.694;37.790;2023-06-04T05:13:58;21.40;76.71
75190;HTU21D;69198;44.694;37.790;2023-06-04T05:14:59;21.38;76.89
75190;HTU21D;69198;44.694;37.790;2023-06-04T05:16:00;21.33;76.96
75190;HTU21D;69198;44.694;37.790;2023-06-04T05:17:08;21.31;76.87
75190;HTU21D;69198;44.694;37.790;2023-06-04T05:18:14;21.29;76.63
75190;HTU21D;69198;44.694;37.790;2023-06-04T05:19:17;21.28;76.96
75190;HTU21D;69198;44.694;37.790;2023-06-04T05:20:19;21.21;77.30
75190;HTU21D;69198;44.694;37.790;2023-06-04T05:21:22;21.20;77.52
75190;HTU21D;69198;44.694;37.790;2023-06-04T05:22:29;21.15;77.56
75190;HTU21D;69198;44.694;37.790;2023-06-04T05:23:30;21.10;77.60
75190;HTU21D;69198;44.694;37.790;2023-06-04T05:24:33;21.08;77.69
75190;HTU21D;69198;44.694;37.790;2023-06-04T05:25:37;21.08;77.85
75190;HTU21D;69198;44.694;37.790;2023-06-04T05:26:39;21.04;78.43
75190;HTU21D;69198;44.694;37.790;2023-06-04T05:27:47;20.84;79.17
75190;HTU21D;69198;44.694;37.790;2023-06-04T05:28:51;20.77;79.24
75190;HTU21D;69198;44.694;37.790;2023-06-04T05:29:52;20.85;78.97
75190;HTU21D;69198;44.694;37.790;2023-06-04T05:30:53;20.90;78.63
75190;HTU21D;69198;44.694;37.790;2023-06-04T05:32:01;20.94;78.76
75190;HTU21D;69198;44.694;37.790;2023-06-04T05:33:02;21.00;78.28
75190;HTU21D;69198;44.694;37.790;2023-06-04T05:34:04;20.95;78.33
75190;HTU21D;69198;44.694;37.790;2023-06-04T05:35:08;20.98;78.16
75190;HTU21D;69198;44.694;37.790;2023-06-04T05:36:09;20.92;78.38
75190;HTU21D;69198;44.694;37.790;2023-06-04T05:37:17;20.86;78.34
75190;HTU21D;69198;44.694;37.790;2023-06-04T05:38:18;20.80;78.67
75190;HTU21D;69198;44.694;37.790;2023-06-04T05:39:20;20.70;79.66
75190;HTU21D;69198;44.694;37.790;2023-06-04T05:40:36;20.46;80.78
75190;HTU21D;69198;44.694;37.790;2023-06-04T05:41:37;20.28;81.62
75190;HTU21D;69198;44.694;37.790;2023-06-04T05:42:40;20.09;82.12
75190;HTU21D;69198;44.694;37.790;2023-06-04T05:43:42;19.90;82.78
75190;HTU21D;69198;44.694;37.790;2023-06-04T05:44:46;19.75;84.16
75190;HTU21D;69198;44.694;37.790;2023-06-04T05:45:50;19.58;84.84
75190;HTU21D;69198;44.694;37.790;2023-06-04T05:46:52;19.46;85.81
75190;HTU21D;69198;44.694;37.790;2023-06-04T05:47:54;19.31;86.77
75190;HTU21D;69198;44.694;37.790;2023-06-04T05:48:55;19.30;88.00
75190;HTU21D;69198;44.694;37.790;2023-06-04T05:49:58;19.20;88.30
75190;HTU21D;69198;44.694;37.790;2023-06-04T05:50:59;19.07;88.80
75190;HTU21D;69198;44.694;37.790;2023-06-04T05:52:00;19.03;89.50
75190;HTU21D;69198;44.694;37.790;2023-06-04T05:53:02;18.97;90.20
75190;HTU21D;69198;44.694;37.790;2023-06-04T05:54:03;18.93;90.98
75190;HTU21D;69198;44.694;37.790;2023-06-04T05:55:07;18.87;91.17
75190;HTU21D;69198;44.694;37.790;2023-06-04T05:56:10;18.76;91.27
75190;HTU21D;69198;44.694;37.790;2023-06-04T05:57:11;18.71;91.70
75190;HTU21D;69198;44.694;37.790;2023-06-04T05:58:12;18.72;92.56
75190;HTU21D;69198;44.694;37.790;2023-06-04T05:59:13;18.72;92.57
75190;HTU21D;69198;44.694;37.790;2023-06-04T06:00:16;18.71;92.88
75190;HTU21D;69198;44.694;37.790;2023-06-04T06:01:17;18.65;93.01
75190;HTU21D;69198;44.694;37.790;2023-06-04T06:02:18;18.62;93.18
75190;HTU21D;69198;44.694;37.790;2023-06-04T06:03:20;18.57;93.39
75190;HTU21D;69198;44.694;37.790;2023-06-04T06:04:22;18.61;93.69
75190;HTU21D;69198;44.694;37.790;2023-06-04T06:05:24;18.62;93.90
75190;HTU21D;69198;44.694;37.790;2023-06-04T06:06:26;18.61;93.86
75190;HTU21D;69198;44.694;37.790;2023-06-04T06:07:27;18.56;94.11
75190;HTU21D;69198;44.694;37.790;2023-06-04T06:08:28;18.54;94.16
75190;HTU21D;69198;44.694;37.790;2023-06-04T06:09:29;18.53;94.50
75190;HTU21D;69198;44.694;37.790;2023-06-04T06:10:30;18.54;94.46
75190;HTU21D;69198;44.694;37.790;2023-06-04T06:11:32;18.53;94.74
75190;HTU21D;69198;44.694;37.790;2023-06-04T06:12:33;18.50;94.47
75190;HTU21D;69198;44.694;37.790;2023-06-04T06:13:34;18.48;94.43
75190;HTU21D;69198;44.694;37.790;2023-06-04T06:14:35;18.46;94.30
75190;HTU21D;69198;44.694;37.790;2023-06-04T06:15:37;18.43;94.55
75190;HTU21D;69198;44.694;37.790;2023-06-04T06:16:39;18.47;94.49
75190;HTU21D;69198;44.694;37.790;2023-06-04T06:17:41;18.46;94.61
75190;HTU21D;69198;44.694;37.790;2023-06-04T06:18:42;18.47;94.80
75190;HTU21D;69198;44.694;37.790;2023-06-04T06:19:43;18.47;94.74
75190;HTU21D;69198;44.694;37.790;2023-06-04T06:20:44;18.51;94.98
75190;HTU21D;69198;44.694;37.790;2023-06-04T06:21:45;18.55;95.10
75190;HTU21D;69198;44.694;37.790;2023-06-04T06:22:47;18.61;94.84
75190;HTU21D;69198;44.694;37.790;2023-06-04T06:23:51;18.63;94.77
75190;HTU21D;69198;44.694;37.790;2023-06-04T06:24:52;18.68;94.52
75190;HTU21D;69198;44.694;37.790;2023-06-04T06:25:54;18.74;94.48